AIZ162 LCLK-LLBG
Flight info
| Callsign | AIZ162 |
|---|---|
| Flight time | 0h 38m |
| Altitude | 23000 |
| Route | EMEDA DCT TUZIB L189 ZUKKO |
| Aircraft | A320/M-SDE1FGHIJ1LORVWY/EB1 |
Departure
| Time | 2026-05-05 11:45 |
|---|---|
| Airport | Larnaca International Airport (LCLK) |
Arrival
| Time | 2026-05-05 12:23 |
|---|---|
| Airport | Ben Gurion International Airport (LLBG) |
| Time | Latitude | Longitude | Altitude | Speed | Heading |
|---|---|---|---|---|---|
| 2026-05-05 11:21 | 34.86832 | 33.60993 | 21 ft | 0 kts | 46° |
| 2026-05-05 11:35 | 34.86820 | 33.60977 | 21 ft | 4 kts | 46° |
| 2026-05-05 11:36 | 34.86802 | 33.60953 | 23 ft | 4 kts | 46° |
| 2026-05-05 11:36 | 34.86786 | 33.60929 | 22 ft | 4 kts | 72° |
| 2026-05-05 11:36 | 34.86784 | 33.60903 | 21 ft | 4 kts | 118° |
| 2026-05-05 11:36 | 34.86790 | 33.60893 | 23 ft | 1 kts | 135° |
| 2026-05-05 11:40 | 34.86774 | 33.60911 | 21 ft | 10 kts | 135° |
| 2026-05-05 11:40 | 34.86719 | 33.60977 | 21 ft | 12 kts | 135° |
| 2026-05-05 11:40 | 34.86660 | 33.61048 | 21 ft | 12 kts | 131° |
| 2026-05-05 11:41 | 34.86644 | 33.61135 | 21 ft | 10 kts | 67° |
| 2026-05-05 11:41 | 34.86693 | 33.61202 | 21 ft | 17 kts | 43° |
| 2026-05-05 11:41 | 34.86821 | 33.61355 | 22 ft | 28 kts | 45° |
| 2026-05-05 11:41 | 34.86964 | 33.61532 | 21 ft | 30 kts | 45° |
| 2026-05-05 11:42 | 34.87116 | 33.61721 | 21 ft | 32 kts | 45° |
| 2026-05-05 11:42 | 34.87277 | 33.61918 | 21 ft | 34 kts | 46° |
| 2026-05-05 11:42 | 34.87445 | 33.62123 | 21 ft | 35 kts | 44° |
| 2026-05-05 11:42 | 34.87616 | 33.62333 | 21 ft | 36 kts | 46° |
| 2026-05-05 11:43 | 34.87797 | 33.62549 | 20 ft | 37 kts | 46° |
| 2026-05-05 11:43 | 34.87978 | 33.62776 | 21 ft | 38 kts | 40° |
| 2026-05-05 11:43 | 34.88164 | 33.63005 | 20 ft | 38 kts | 48° |
| 2026-05-05 11:43 | 34.88355 | 33.63228 | 21 ft | 31 kts | 44° |
| 2026-05-05 11:44 | 34.88438 | 33.63359 | 20 ft | 15 kts | 74° |
| 2026-05-05 11:44 | 34.88399 | 33.63430 | 21 ft | 9 kts | 132° |
| 2026-05-05 11:44 | 34.88349 | 33.63494 | 22 ft | 14 kts | 142° |
| 2026-05-05 11:44 | 34.88209 | 33.63419 | 21 ft | 54 kts | 226° |
| 2026-05-05 11:45 | 34.87759 | 33.62869 | 25 ft | 128 kts | 225° |
| 2026-05-05 11:45 | 34.87026 | 33.61975 | 274 ft | 166 kts | 224° |
| 2026-05-05 11:45 | 34.86113 | 33.60904 | 677 ft | 197 kts | 223° |
| 2026-05-05 11:45 | 34.85029 | 33.59649 | 1003 ft | 234 kts | 224° |
| 2026-05-05 11:46 | 34.83771 | 33.58199 | 1500 ft | 260 kts | 224° |
| 2026-05-05 11:46 | 34.82493 | 33.56654 | 2653 ft | 258 kts | 225° |
| 2026-05-05 11:46 | 34.80992 | 33.55487 | 3772 ft | 261 kts | 197° |
| 2026-05-05 11:46 | 34.79176 | 33.55528 | 4804 ft | 268 kts | 161° |
| 2026-05-05 11:47 | 34.77588 | 33.56747 | 5749 ft | 276 kts | 139° |
| 2026-05-05 11:47 | 34.76253 | 33.58459 | 6666 ft | 282 kts | 132° |
| 2026-05-05 11:47 | 34.74983 | 33.60262 | 7537 ft | 287 kts | 132° |
| 2026-05-05 11:47 | 34.73630 | 33.62078 | 8400 ft | 293 kts | 135° |
| 2026-05-05 11:48 | 34.70657 | 33.65552 | 10113 ft | 303 kts | 140° |
| 2026-05-05 11:48 | 34.69642 | 33.66633 | 10414 ft | 310 kts | 141° |
| 2026-05-05 11:48 | 34.67937 | 33.68385 | 10790 ft | 330 kts | 142° |
| 2026-05-05 11:49 | 34.66126 | 33.70209 | 11252 ft | 347 kts | 142° |
| 2026-05-05 11:49 | 34.64215 | 33.72122 | 11684 ft | 365 kts | 142° |
| 2026-05-05 11:49 | 34.62109 | 33.73870 | 12121 ft | 378 kts | 153° |
| 2026-05-05 11:49 | 34.59693 | 33.75179 | 12749 ft | 383 kts | 163° |
| 2026-05-05 11:50 | 34.57161 | 33.76292 | 13424 ft | 391 kts | 163° |
| 2026-05-05 11:50 | 34.54587 | 33.77437 | 14058 ft | 397 kts | 163° |
| 2026-05-05 11:50 | 34.51973 | 33.78610 | 14670 ft | 403 kts | 163° |
| 2026-05-05 11:50 | 34.49313 | 33.79753 | 15279 ft | 407 kts | 168° |
| 2026-05-05 11:51 | 34.46548 | 33.80440 | 15901 ft | 406 kts | 179° |
| 2026-05-05 11:51 | 34.43730 | 33.80681 | 16523 ft | 408 kts | 183° |
| 2026-05-05 11:51 | 34.40916 | 33.80890 | 17137 ft | 413 kts | 183° |
| 2026-05-05 11:51 | 34.38034 | 33.81109 | 17763 ft | 418 kts | 184° |
| 2026-05-05 11:52 | 34.35116 | 33.81333 | 18372 ft | 422 kts | 184° |
| 2026-05-05 11:52 | 34.32166 | 33.81560 | 18895 ft | 427 kts | 184° |
| 2026-05-05 11:52 | 34.29187 | 33.81792 | 19453 ft | 431 kts | 184° |
| 2026-05-05 11:52 | 34.26180 | 33.82029 | 20001 ft | 435 kts | 184° |
| 2026-05-05 11:53 | 34.23145 | 33.82268 | 20550 ft | 439 kts | 184° |
| 2026-05-05 11:53 | 34.20078 | 33.82507 | 21088 ft | 443 kts | 184° |
| 2026-05-05 11:53 | 34.17030 | 33.82744 | 21593 ft | 447 kts | 184° |
| 2026-05-05 11:53 | 34.13914 | 33.82986 | 22087 ft | 451 kts | 184° |
| 2026-05-05 11:54 | 34.10770 | 33.83226 | 22585 ft | 455 kts | 184° |
| 2026-05-05 11:54 | 34.07593 | 33.83469 | 22914 ft | 462 kts | 184° |
| 2026-05-05 11:54 | 34.04343 | 33.83715 | 22986 ft | 474 kts | 183° |
| 2026-05-05 11:54 | 34.01005 | 33.83965 | 22994 ft | 486 kts | 183° |
| 2026-05-05 11:55 | 33.97591 | 33.84221 | 22993 ft | 496 kts | 183° |
| 2026-05-05 11:55 | 33.94159 | 33.84479 | 22991 ft | 505 kts | 182° |
| 2026-05-05 11:55 | 33.90633 | 33.84746 | 22995 ft | 511 kts | 182° |
| 2026-05-05 11:55 | 33.87064 | 33.85019 | 22996 ft | 516 kts | 182° |
| 2026-05-05 11:56 | 33.83471 | 33.85293 | 23000 ft | 519 kts | 182° |
| 2026-05-05 11:56 | 33.79859 | 33.85570 | 23003 ft | 521 kts | 182° |
| 2026-05-05 11:56 | 33.76239 | 33.85849 | 23002 ft | 522 kts | 182° |
| 2026-05-05 11:56 | 33.72627 | 33.86134 | 22996 ft | 513 kts | 182° |
| 2026-05-05 11:57 | 33.69172 | 33.86423 | 23006 ft | 483 kts | 182° |
| 2026-05-05 11:57 | 33.65885 | 33.86704 | 23012 ft | 469 kts | 182° |
| 2026-05-05 11:57 | 33.62640 | 33.86964 | 23008 ft | 467 kts | 182° |
| 2026-05-05 11:57 | 33.59444 | 33.87204 | 23009 ft | 466 kts | 182° |
| 2026-05-05 11:58 | 33.56204 | 33.87441 | 23010 ft | 466 kts | 182° |
| 2026-05-05 11:58 | 33.52970 | 33.87681 | 23013 ft | 466 kts | 182° |
| 2026-05-05 11:58 | 33.49738 | 33.87924 | 23013 ft | 465 kts | 182° |
| 2026-05-05 11:58 | 33.46510 | 33.88174 | 23009 ft | 465 kts | 182° |
| 2026-05-05 11:59 | 33.43280 | 33.88428 | 23012 ft | 465 kts | 182° |
| 2026-05-05 11:59 | 33.40052 | 33.88679 | 23007 ft | 465 kts | 182° |
| 2026-05-05 11:59 | 33.36822 | 33.88931 | 23014 ft | 465 kts | 182° |
| 2026-05-05 11:59 | 33.33597 | 33.89184 | 22986 ft | 463 kts | 182° |
| 2026-05-05 12:00 | 33.30439 | 33.89430 | 22726 ft | 459 kts | 182° |
| 2026-05-05 12:00 | 33.27265 | 33.89678 | 22456 ft | 456 kts | 182° |
| 2026-05-05 12:00 | 33.24104 | 33.89925 | 22199 ft | 454 kts | 182° |
| 2026-05-05 12:00 | 33.20958 | 33.90168 | 21933 ft | 452 kts | 182° |
| 2026-05-05 12:01 | 33.17828 | 33.90407 | 21675 ft | 450 kts | 182° |
| 2026-05-05 12:01 | 33.14715 | 33.90634 | 21415 ft | 447 kts | 182° |
| 2026-05-05 12:01 | 33.11614 | 33.90855 | 21159 ft | 445 kts | 182° |
| 2026-05-05 12:01 | 33.08525 | 33.91076 | 20913 ft | 444 kts | 182° |
| 2026-05-05 12:02 | 33.05492 | 33.91300 | 20656 ft | 442 kts | 182° |
| 2026-05-05 12:02 | 33.02429 | 33.91530 | 20410 ft | 440 kts | 182° |
| 2026-05-05 12:02 | 32.99377 | 33.91757 | 20154 ft | 438 kts | 182° |
| 2026-05-05 12:02 | 32.96344 | 33.91983 | 19927 ft | 437 kts | 182° |
| 2026-05-05 12:03 | 32.93316 | 33.92210 | 19678 ft | 435 kts | 182° |
| 2026-05-05 12:03 | 32.90301 | 33.92434 | 19438 ft | 433 kts | 182° |
| 2026-05-05 12:03 | 32.88311 | 33.92580 | 19286 ft | 432 kts | 182° |
| 2026-05-05 12:03 | 32.85335 | 33.92799 | 18868 ft | 425 kts | 182° |
| 2026-05-05 12:04 | 32.82393 | 33.93015 | 18312 ft | 422 kts | 182° |
| 2026-05-05 12:04 | 32.79480 | 33.93223 | 17715 ft | 418 kts | 182° |
| 2026-05-05 12:04 | 32.75672 | 33.93494 | 17008 ft | 410 kts | 182° |
| 2026-05-05 12:04 | 32.73756 | 33.93630 | 16654 ft | 407 kts | 182° |
| 2026-05-05 12:05 | 32.70938 | 33.93832 | 16056 ft | 404 kts | 182° |
| 2026-05-05 12:05 | 32.68183 | 33.94032 | 15515 ft | 400 kts | 182° |
| 2026-05-05 12:05 | 32.65413 | 33.94236 | 14964 ft | 397 kts | 181° |
| 2026-05-05 12:05 | 32.62670 | 33.94437 | 14391 ft | 394 kts | 181° |
| 2026-05-05 12:06 | 32.59938 | 33.94726 | 13800 ft | 395 kts | 175° |
| 2026-05-05 12:06 | 32.57276 | 33.95603 | 13132 ft | 399 kts | 162° |
| 2026-05-05 12:06 | 32.54829 | 33.97154 | 12721 ft | 401 kts | 148° |
| 2026-05-05 12:06 | 32.52688 | 33.99281 | 12475 ft | 403 kts | 136° |
| 2026-05-05 12:07 | 32.50762 | 34.01689 | 12185 ft | 401 kts | 136° |
| 2026-05-05 12:07 | 32.48857 | 34.04066 | 11948 ft | 391 kts | 136° |
| 2026-05-05 12:07 | 32.47047 | 34.06320 | 11813 ft | 374 kts | 136° |
| 2026-05-05 12:07 | 32.45293 | 34.08506 | 11696 ft | 359 kts | 136° |
| 2026-05-05 12:08 | 32.43777 | 34.10726 | 11532 ft | 337 kts | 125° |
| 2026-05-05 12:08 | 32.42706 | 34.13133 | 11021 ft | 327 kts | 112° |
| 2026-05-05 12:08 | 32.42075 | 34.15692 | 10434 ft | 321 kts | 102° |
| 2026-05-05 12:08 | 32.41634 | 34.18248 | 9999 ft | 313 kts | 102° |
| 2026-05-05 12:09 | 32.41191 | 34.20754 | 9840 ft | 310 kts | 102° |
| 2026-05-05 12:09 | 32.40744 | 34.23249 | 9705 ft | 310 kts | 103° |
| 2026-05-05 12:09 | 32.40295 | 34.25737 | 9577 ft | 309 kts | 103° |
| 2026-05-05 12:09 | 32.39851 | 34.28186 | 9357 ft | 308 kts | 103° |
| 2026-05-05 12:10 | 32.39406 | 34.30652 | 9113 ft | 306 kts | 103° |
| 2026-05-05 12:10 | 32.38962 | 34.33106 | 8904 ft | 305 kts | 103° |
| 2026-05-05 12:10 | 32.38516 | 34.35561 | 8810 ft | 305 kts | 103° |
| 2026-05-05 12:10 | 32.38070 | 34.38012 | 8694 ft | 304 kts | 103° |
| 2026-05-05 12:11 | 32.37628 | 34.40457 | 8575 ft | 304 kts | 103° |
| 2026-05-05 12:11 | 32.37187 | 34.42894 | 8456 ft | 303 kts | 103° |
| 2026-05-05 12:11 | 32.36742 | 34.45326 | 8335 ft | 302 kts | 103° |
| 2026-05-05 12:11 | 32.36305 | 34.47719 | 8223 ft | 301 kts | 103° |
| 2026-05-05 12:12 | 32.35866 | 34.50140 | 8100 ft | 301 kts | 103° |
| 2026-05-05 12:12 | 32.35371 | 34.52545 | 7977 ft | 300 kts | 111° |
| 2026-05-05 12:12 | 32.34580 | 34.54814 | 7902 ft | 298 kts | 115° |
| 2026-05-05 12:12 | 32.33761 | 34.57062 | 7837 ft | 298 kts | 115° |
| 2026-05-05 12:13 | 32.32945 | 34.59309 | 7714 ft | 297 kts | 115° |
| 2026-05-05 12:13 | 32.32129 | 34.61557 | 7589 ft | 297 kts | 115° |
| 2026-05-05 12:13 | 32.31317 | 34.63795 | 7464 ft | 296 kts | 115° |
| 2026-05-05 12:13 | 32.30507 | 34.66027 | 7340 ft | 295 kts | 116° |
| 2026-05-05 12:14 | 32.29710 | 34.68222 | 7216 ft | 294 kts | 116° |
| 2026-05-05 12:14 | 32.28901 | 34.70445 | 7096 ft | 294 kts | 115° |
| 2026-05-05 12:14 | 32.28094 | 34.72663 | 6972 ft | 293 kts | 115° |
| 2026-05-05 12:14 | 32.27290 | 34.74874 | 6846 ft | 292 kts | 116° |
| 2026-05-05 12:15 | 32.26488 | 34.77075 | 6725 ft | 292 kts | 116° |
| 2026-05-05 12:15 | 32.25683 | 34.79276 | 6569 ft | 292 kts | 115° |
| 2026-05-05 12:15 | 32.25015 | 34.81530 | 6220 ft | 290 kts | 109° |
| 2026-05-05 12:15 | 32.24437 | 34.83770 | 5835 ft | 288 kts | 109° |
| 2026-05-05 12:16 | 32.23852 | 34.86028 | 5443 ft | 288 kts | 109° |
| 2026-05-05 12:16 | 32.23270 | 34.88272 | 5169 ft | 280 kts | 109° |
| 2026-05-05 12:16 | 32.22719 | 34.90403 | 5094 ft | 261 kts | 109° |
| 2026-05-05 12:16 | 32.22213 | 34.92364 | 4992 ft | 241 kts | 109° |
| 2026-05-05 12:17 | 32.21728 | 34.94237 | 4672 ft | 235 kts | 109° |
| 2026-05-05 12:17 | 32.21255 | 34.96051 | 4375 ft | 227 kts | 110° |
| 2026-05-05 12:17 | 32.20576 | 34.97648 | 4137 ft | 209 kts | 135° |
| 2026-05-05 12:17 | 32.19494 | 34.98704 | 3864 ft | 197 kts | 159° |
| 2026-05-05 12:18 | 32.18242 | 34.99169 | 3621 ft | 182 kts | 181° |
| 2026-05-05 12:18 | 32.17038 | 34.99136 | 3412 ft | 171 kts | 193° |
| 2026-05-05 12:18 | 32.15878 | 34.98966 | 3194 ft | 161 kts | 206° |
| 2026-05-05 12:18 | 32.14913 | 34.98426 | 3061 ft | 151 kts | 213° |
| 2026-05-05 12:19 | 32.13986 | 34.97866 | 2878 ft | 148 kts | 215° |
| 2026-05-05 12:19 | 32.13092 | 34.97306 | 2688 ft | 144 kts | 216° |
| 2026-05-05 12:19 | 32.12228 | 34.96755 | 2501 ft | 136 kts | 216° |
| 2026-05-05 12:19 | 32.11407 | 34.96227 | 2327 ft | 132 kts | 215° |
| 2026-05-05 12:20 | 32.10610 | 34.95712 | 2155 ft | 131 kts | 216° |
| 2026-05-05 12:20 | 32.09815 | 34.95199 | 1973 ft | 130 kts | 216° |
| 2026-05-05 12:20 | 32.09031 | 34.94691 | 1804 ft | 131 kts | 216° |
| 2026-05-05 12:20 | 32.08237 | 34.94178 | 1624 ft | 130 kts | 217° |
| 2026-05-05 12:21 | 32.07439 | 34.93661 | 1441 ft | 130 kts | 215° |
| 2026-05-05 12:21 | 32.06647 | 34.93150 | 1271 ft | 130 kts | 216° |
| 2026-05-05 12:21 | 32.05853 | 34.92636 | 1087 ft | 131 kts | 215° |
| 2026-05-05 12:21 | 32.05048 | 34.92130 | 917 ft | 132 kts | 213° |
| 2026-05-05 12:22 | 32.04240 | 34.91639 | 696 ft | 129 kts | 216° |
| 2026-05-05 12:22 | 32.03461 | 34.91121 | 489 ft | 129 kts | 218° |
| 2026-05-05 12:22 | 32.02693 | 34.90597 | 345 ft | 129 kts | 217° |
| 2026-05-05 12:22 | 32.01905 | 34.90092 | 186 ft | 129 kts | 215° |
| 2026-05-05 12:23 | 32.01159 | 34.89603 | 124 ft | 113 kts | 215° |
| 2026-05-05 12:23 | 32.00623 | 34.89238 | 118 ft | 54 kts | 212° |
| 2026-05-05 12:23 | 32.00374 | 34.89079 | 118 ft | 28 kts | 208° |
| 2026-05-05 12:23 | 32.00224 | 34.88961 | 118 ft | 24 kts | 228° |
| 2026-05-05 12:24 | 32.00133 | 34.88818 | 118 ft | 20 kts | 240° |
| 2026-05-05 12:24 | 32.00087 | 34.88679 | 120 ft | 16 kts | 279° |
| 2026-05-05 12:24 | 32.00132 | 34.88563 | 120 ft | 15 kts | 299° |
| 2026-05-05 12:24 | 32.00191 | 34.88465 | 120 ft | 14 kts | 302° |
| 2026-05-05 12:25 | 32.00243 | 34.88364 | 116 ft | 14 kts | 301° |
| 2026-05-05 12:25 | 32.00293 | 34.88263 | 119 ft | 15 kts | 300° |
| 2026-05-05 12:25 | 32.00346 | 34.88160 | 118 ft | 15 kts | 301° |
| 2026-05-05 12:25 | 32.00401 | 34.88052 | 117 ft | 16 kts | 300° |
| 2026-05-05 12:26 | 32.00447 | 34.87947 | 120 ft | 13 kts | 271° |
| 2026-05-05 12:26 | 32.00388 | 34.87873 | 118 ft | 13 kts | 213° |
| 2026-05-05 12:26 | 32.00319 | 34.87824 | 120 ft | 8 kts | 211° |
| 2026-05-05 12:26 | 32.00275 | 34.87840 | 120 ft | 6 kts | 128° |
| 2026-05-05 12:27 | 32.00259 | 34.87871 | 117 ft | 3 kts | 118° |
| 2026-05-05 12:27 | 32.00253 | 34.87885 | 119 ft | 0 kts | 120° |
| 2026-05-05 12:27 | 32.00252 | 34.87885 | 119 ft | 0 kts | 120° |